Bromptonville, Canada
Current Conditions -  °F | °C
As of 4:44 AM on Friday 28 Nov 2014 (Local Time) from CYSC Reporting Station
Light Snow Light Snow  
Wind Chill: 18°   Ceiling: 5500
Heat Index: 18°   Visibility: 8mi
Dew Point: 18°   Wind: 0mph
Humidity: 100%   Direction: NA
Pressure: 30"   Gusts: NA
Location:  45.47°N, 71.94°W
Report Text: CYSC 280944Z AUTO 00000KT 8SM -SN SCT046 BKN055 BKN072 OVC093 M08/M08 A3000 RMK SLP172
Loading
Personal Weather Stations






























Interactive Weather Map New forecast layout! Learn more

10-Day Weather Forecast

Advertisements
Track Severe Weather on mobile